Time;durP1;ratioP1;P1;durP2;ratioP2;P2;SDS_P1;SDS_P2;PMS_P1;PMS_P2;Temp;Humidity;BMP_temperature;BMP_pressure;BME280_temperature;BME280_humidity;BME280_pressure;Samples;Min_cycle;Max_cycle;Signal;HPM_P1;HPM_P2
2021/05/26 00:01:24;;;;;;;12.13;3.60;;;11.40;91.10;;;;;;5016529;28;20220;-75
2021/05/26 00:03:51;;;;;;;9.63;3.43;;;11.40;90.90;;;;;;5015526;28;20269;-76
2021/05/26 00:06:16;;;;;;;8.60;2.93;;;11.40;90.30;;;;;;5016757;28;20174;-75
2021/05/26 00:08:42;;;;;;;10.07;3.23;;;11.30;89.20;;;;;;5017244;28;20190;-75
2021/05/26 00:11:14;;;;;;;10.00;3.60;;;11.30;90.00;;;;;;5016879;28;20202;-75
2021/05/26 00:13:44;;;;;;;11.43;3.10;;;11.20;90.20;;;;;;5017659;28;20170;-75
2021/05/26 00:16:09;;;;;;;8.57;3.23;;;11.20;91.10;;;;;;5019209;28;20175;-77
2021/05/26 00:18:35;;;;;;;7.63;2.90;;;11.20;90.90;;;;;;5021146;28;20182;-74
2021/05/26 00:21:03;;;;;;;8.40;2.63;;;11.00;90.30;;;;;;5017978;28;20209;-74
2021/05/26 00:23:29;;;;;;;5.37;2.10;;;10.90;90.50;;;;;;5017982;28;20166;-74
2021/05/26 00:25:54;;;;;;;5.40;1.87;;;11.00;88.80;;;;;;5018330;28;20196;-75
2021/05/26 00:28:20;;;;;;;6.23;1.90;;;11.00;87.30;;;;;;5016823;28;20529;-75
2021/05/26 00:30:49;;;;;;;4.70;1.70;;;11.00;82.20;;;;;;5016737;28;20174;-75
2021/05/26 00:33:16;;;;;;;7.77;2.37;;;11.00;80.30;;;;;;5016940;28;20221;-76
2021/05/26 00:35:42;;;;;;;4.73;2.00;;;10.90;80.80;;;;;;5021808;28;20190;-75
2021/05/26 00:38:08;;;;;;;4.43;1.57;;;10.80;84.50;;;;;;5022146;28;20170;-74
2021/05/26 00:40:35;;;;;;;5.40;1.63;;;10.90;82.70;;;;;;5016834;28;20202;-76
2021/05/26 00:43:02;;;;;;;4.10;1.50;;;10.80;84.10;;;;;;5016591;28;20178;-74
2021/05/26 00:45:28;;;;;;;4.67;1.50;;;10.70;86.80;;;;;;5017051;28;20166;-75
2021/05/26 00:47:54;;;;;;;5.20;1.67;;;10.70;87.70;;;;;;5016788;28;20224;-75
2021/05/26 00:50:28;;;;;;;5.33;1.70;;;10.80;86.30;;;;;;5016239;28;20189;-75
2021/05/26 00:52:57;;;;;;;6.60;1.50;;;10.70;85.90;;;;;;5016301;28;20166;-75
2021/05/26 00:55:23;;;;;;;4.03;1.80;;;10.80;85.30;;;;;;5016671;28;20229;-75
2021/05/26 00:57:50;;;;;;;2.70;1.33;;;10.90;83.40;;;;;;5016410;28;20162;-75
2021/05/26 01:00:19;;;;;;;5.53;1.90;;;10.90;85.40;;;;;;5016470;28;20194;-75
2021/05/26 01:02:46;;;;;;;5.33;1.70;;;10.90;86.60;;;;;;5016277;28;20171;-76
2021/05/26 01:05:13;;;;;;;5.87;1.70;;;10.80;90.00;;;;;;5016624;28;20190;-75
2021/05/26 01:07:40;;;;;;;5.50;1.60;;;10.80;90.00;;;;;;5016301;28;20174;-74
2021/05/26 01:10:10;;;;;;;3.47;1.40;;;10.80;89.90;;;;;;5015956;28;20197;-75
2021/05/26 01:12:36;;;;;;;3.67;1.53;;;10.70;88.20;;;;;;5015947;28;20178;-74
2021/05/26 01:15:03;;;;;;;4.53;1.53;;;10.80;84.40;;;;;;5015912;28;20174;-75
2021/05/26 01:17:29;;;;;;;2.70;1.10;;;10.90;80.00;;;;;;5015988;28;20648;-76
2021/05/26 01:19:55;;;;;;;4.03;1.40;;;10.90;75.20;;;;;;5016307;28;20174;-76
2021/05/26 01:22:20;;;;;;;4.40;1.70;;;10.90;78.10;;;;;;5015979;28;20190;-75
2021/05/26 01:24:46;;;;;;;3.20;1.60;;;10.90;81.80;;;;;;5016567;28;20253;-75
2021/05/26 01:27:12;;;;;;;8.73;2.40;;;11.00;83.60;;;;;;5014398;28;20174;-75
2021/05/26 01:29:38;;;;;;;5.60;1.83;;;10.90;89.80;;;;;;5014996;28;20194;-75
2021/05/26 01:32:04;;;;;;;4.40;1.97;;;10.90;90.60;;;;;;5015590;28;20178;-75
2021/05/26 01:34:29;;;;;;;6.63;2.60;;;11.00;91.70;;;;;;5015502;28;20175;-76
2021/05/26 01:36:55;;;;;;;4.97;2.00;;;10.90;92.60;;;;;;5015602;28;20178;-74
2021/05/26 01:39:21;;;;;;;6.13;2.63;;;10.80;93.90;;;;;;5016065;28;20182;-80
2021/05/26 01:41:47;;;;;;;5.23;2.20;;;10.80;95.40;;;;;;5015343;28;20221;-75
2021/05/26 01:44:13;;;;;;;6.80;2.50;;;10.80;95.90;;;;;;5013711;28;20170;-74
2021/05/26 01:46:40;;;;;;;6.97;2.77;;;10.70;96.70;;;;;;5013914;28;20178;-75
2021/05/26 01:49:06;;;;;;;6.87;2.17;;;10.80;97.00;;;;;;5015429;28;20177;-74
2021/05/26 01:51:32;;;;;;;5.30;2.47;;;10.80;96.60;;;;;;5015371;28;20637;-74
2021/05/26 01:53:58;;;;;;;4.33;2.30;;;10.70;97.00;;;;;;5015481;28;20196;-74
2021/05/26 01:56:26;;;;;;;5.40;2.20;;;10.80;97.00;;;;;;5015699;28;20690;-75
2021/05/26 01:58:54;;;;;;;10.63;3.03;;;10.80;96.30;;;;;;5016552;28;20162;-78
2021/05/26 02:01:22;;;;;;;8.23;2.50;;;10.80;96.20;;;;;;5016632;28;20202;-74
2021/05/26 02:03:49;;;;;;;5.83;2.37;;;10.80;96.40;;;;;;5016476;28;20275;-74
2021/05/26 02:06:16;;;;;;;5.67;2.23;;;10.80;96.30;;;;;;5016602;28;20178;-74
2021/05/26 02:08:43;;;;;;;4.70;2.10;;;10.80;96.60;;;;;;5014792;28;20171;-75
2021/05/26 02:14:05;;;;;;;4.93;1.90;;;10.80;96.00;;;;;;5014803;28;20201;-75
2021/05/26 02:16:31;;;;;;;5.70;2.10;;;10.90;94.70;;;;;;5013773;28;20178;-75
2021/05/26 02:18:57;;;;;;;4.40;2.00;;;10.80;94.60;;;;;;5015011;28;20163;-75
2021/05/26 02:21:23;;;;;;;5.63;2.30;;;10.60;95.60;;;;;;5014996;28;20198;-74
2021/05/26 02:23:50;;;;;;;6.10;2.20;;;10.60;95.00;;;;;;5014682;28;20645;-76
2021/05/26 02:26:15;;;;;;;6.83;2.23;;;10.50;96.10;;;;;;5014556;28;20245;-75
2021/05/26 02:28:42;;;;;;;4.87;1.77;;;10.50;96.20;;;;;;5014144;28;20650;-76
2021/05/26 02:31:08;;;;;;;4.40;2.10;;;10.50;96.00;;;;;;5014496;28;20301;-76
2021/05/26 02:33:34;;;;;;;4.93;2.60;;;10.40;97.10;;;;;;5014312;28;20753;-74
2021/05/26 02:36:00;;;;;;;5.37;2.87;;;10.40;97.30;;;;;;5015085;28;20185;-74
2021/05/26 02:38:26;;;;;;;6.37;2.40;;;10.60;97.90;;;;;;5013323;28;20257;-75
2021/05/26 02:40:52;;;;;;;6.43;2.53;;;10.50;97.60;;;;;;5014212;28;20247;-76
2021/05/26 02:43:17;;;;;;;4.97;2.70;;;10.50;96.80;;;;;;5024063;28;20174;-74
2021/05/26 02:45:43;;;;;;;6.30;2.87;;;10.50;97.40;;;;;;5026509;28;20274;-74
2021/05/26 02:48:09;;;;;;;6.17;2.80;;;10.30;97.80;;;;;;5013366;28;20174;-77
2021/05/26 02:50:35;;;;;;;6.30;3.30;;;10.40;98.00;;;;;;5014028;28;20617;-74
2021/05/26 02:53:01;;;;;;;6.77;3.00;;;10.40;98.10;;;;;;5014071;28;20261;-75
2021/05/26 02:55:27;;;;;;;4.90;2.60;;;10.50;97.80;;;;;;5014093;28;20197;-75
2021/05/26 02:57:53;;;;;;;6.90;3.47;;;10.50;97.30;;;;;;5014156;28;20178;-77
2021/05/26 03:00:21;;;;;;;4.53;3.17;;;10.50;97.40;;;;;;5020802;28;20210;-74
2021/05/26 03:02:47;;;;;;;8.93;3.53;;;10.40;97.90;;;;;;5018417;28;20196;-74
2021/05/26 03:05:15;;;;;;;6.17;3.10;;;10.40;98.60;;;;;;5013714;28;20178;-76
2021/05/26 03:07:42;;;;;;;5.63;3.63;;;10.50;98.60;;;;;;5013882;28;20171;-74
2021/05/26 03:10:10;;;;;;;5.57;3.40;;;10.50;98.40;;;;;;5014003;28;20661;-76
2021/05/26 03:12:36;;;;;;;6.07;3.60;;;10.70;97.40;;;;;;5013402;28;20182;-75
2021/05/26 03:15:04;;;;;;;7.33;3.53;;;10.60;96.80;;;;;;5012706;28;20605;-75
2021/05/26 03:17:30;;;;;;;6.47;3.50;;;10.50;97.40;;;;;;5013989;28;20175;-75
2021/05/26 03:19:56;;;;;;;6.27;3.83;;;10.50;97.50;;;;;;5013715;28;20170;-75
2021/05/26 03:22:22;;;;;;;6.57;3.53;;;10.50;98.00;;;;;;5013832;28;20174;-75
2021/05/26 03:24:48;;;;;;;7.70;3.83;;;10.60;97.80;;;;;;5013689;28;20224;-75
2021/05/26 03:27:15;;;;;;;5.70;3.80;;;10.50;98.10;;;;;;5013940;28;20169;-73
2021/05/26 03:29:40;;;;;;;7.83;4.20;;;10.50;99.20;;;;;;5014866;28;20193;-76
2021/05/26 03:32:06;;;;;;;7.97;3.80;;;10.40;99.10;;;;;;5013297;28;20166;-75
2021/05/26 03:34:32;;;;;;;7.03;3.97;;;10.30;99.60;;;;;;5013779;28;20178;-75
2021/05/26 03:36:58;;;;;;;6.73;3.53;;;10.30;99.90;;;;;;5013141;28;20163;-75
2021/05/26 03:39:24;;;;;;;10.93;4.63;;;10.30;99.90;;;;;;5013634;28;20649;-75
2021/05/26 03:41:49;;;;;;;7.77;4.20;;;10.40;99.60;;;;;;5012870;28;20214;-77
2021/05/26 03:44:15;;;;;;;9.00;5.17;;;10.30;99.60;;;;;;5013476;28;20161;-75
2021/05/26 03:46:41;;;;;;;9.97;4.60;;;10.40;99.90;;;;;;5013699;28;20163;-75
2021/05/26 03:49:07;;;;;;;7.10;4.23;;;10.30;99.90;;;;;;5014020;28;20607;-75
2021/05/26 03:51:36;;;;;;;9.63;5.17;;;10.30;99.90;;;;;;5014216;28;20170;-74
2021/05/26 03:54:02;;;;;;;9.97;5.80;;;10.40;99.90;;;;;;5013285;28;20630;-74
2021/05/26 03:56:27;;;;;;;11.47;5.97;;;10.40;99.60;;;;;;5012854;28;20178;-76
2021/05/26 03:58:56;;;;;;;12.23;6.97;;;10.40;99.80;;;;;;5013080;28;20171;-74
2021/05/26 04:01:22;;;;;;;13.47;5.93;;;10.40;99.90;;;;;;5013072;28;20289;-75
2021/05/26 04:03:47;;;;;;;11.97;5.97;;;10.30;99.90;;;;;;5012189;28;20268;-74
2021/05/26 04:06:13;;;;;;;13.17;6.33;;;10.30;99.90;;;;;;5013158;28;20196;-74
2021/05/26 04:08:38;;;;;;;13.73;6.93;;;10.50;99.90;;;;;;5012204;28;20262;-74
2021/05/26 04:11:04;;;;;;;10.97;6.83;;;10.40;99.60;;;;;;5013194;28;20199;-74
2021/05/26 04:13:30;;;;;;;12.80;6.80;;;10.40;99.80;;;;;;5012532;28;20273;-74
2021/05/26 04:15:55;;;;;;;12.10;6.23;;;10.50;99.60;;;;;;5013690;28;20282;-74
2021/05/26 04:18:21;;;;;;;11.90;6.07;;;10.50;99.40;;;;;;5013709;28;20224;-75
2021/05/26 04:20:47;;;;;;;10.90;5.80;;;10.60;99.30;;;;;;5013563;28;20218;-76
2021/05/26 04:23:13;;;;;;;9.47;4.70;;;10.60;98.90;;;;;;5013704;28;20170;-76
2021/05/26 04:25:38;;;;;;;8.97;4.53;;;10.60;98.50;;;;;;5012709;28;20526;-75
2021/05/26 04:28:07;;;;;;;9.77;4.63;;;10.50;98.20;;;;;;5012750;28;20257;-74
2021/05/26 04:30:32;;;;;;;7.30;4.17;;;10.70;98.30;;;;;;5012929;28;20677;-75
2021/05/26 04:32:58;;;;;;;9.53;4.50;;;10.50;98.20;;;;;;5011375;28;20303;-75
2021/05/26 04:35:24;;;;;;;8.27;4.23;;;10.60;98.10;;;;;;5016745;28;20174;-76
2021/05/26 04:37:49;;;;;;;6.77;3.73;;;10.60;97.90;;;;;;5016766;28;20178;-75
2021/05/26 04:40:15;;;;;;;6.43;3.53;;;10.70;97.90;;;;;;5016111;28;20197;-75
2021/05/26 04:42:41;;;;;;;9.37;3.97;;;10.70;97.20;;;;;;5016424;28;20240;-75
2021/05/26 04:45:07;;;;;;;8.60;3.80;;;10.70;97.20;;;;;;5016454;28;20177;-73
2021/05/26 04:47:33;;;;;;;6.90;3.10;;;10.70;96.80;;;;;;5015079;28;20201;-74
2021/05/26 04:49:58;;;;;;;6.83;3.43;;;10.70;97.10;;;;;;5016536;28;20626;-75
2021/05/26 04:52:24;;;;;;;5.50;3.07;;;10.80;97.00;;;;;;5016356;28;20167;-74
2021/05/26 04:54:50;;;;;;;9.70;3.77;;;10.80;96.60;;;;;;5016314;28;20177;-75
2021/05/26 04:57:15;;;;;;;11.23;4.17;;;10.90;96.40;;;;;;5016243;28;20634;-75
2021/05/26 04:59:41;;;;;;;8.80;3.57;;;11.00;96.30;;;;;;5016479;28;20253;-76
2021/05/26 05:02:07;;;;;;;7.73;3.60;;;10.80;96.60;;;;;;5016313;28;20217;-76
2021/05/26 05:04:32;;;;;;;5.77;3.80;;;10.80;96.60;;;;;;5017086;28;20170;-75
2021/05/26 05:06:58;;;;;;;7.23;3.43;;;10.80;96.70;;;;;;5021188;28;20174;-75
2021/05/26 05:09:25;;;;;;;6.27;3.07;;;10.90;96.60;;;;;;5029855;28;20174;-75
2021/05/26 05:11:50;;;;;;;5.57;3.50;;;11.00;96.80;;;;;;5018303;28;20214;-76
2021/05/26 05:14:16;;;;;;;7.67;3.50;;;10.90;96.20;;;;;;5016044;28;20171;-76
2021/05/26 05:16:42;;;;;;;10.63;3.97;;;10.90;96.30;;;;;;5016190;28;20186;-76
2021/05/26 05:19:08;;;;;;;7.23;3.47;;;10.90;96.40;;;;;;5016863;28;20182;-75
2021/05/26 05:21:33;;;;;;;6.73;3.80;;;10.90;96.80;;;;;;5016655;28;20630;-75
2021/05/26 05:23:59;;;;;;;8.60;3.60;;;10.90;97.20;;;;;;5016257;28;20182;-76
2021/05/26 05:26:47;;;;;;;9.67;4.23;;;11.10;97.40;;;;;;5021425;28;20190;-77
2021/05/26 05:29:15;;;;;;;7.53;4.07;;;11.10;95.60;;;;;;5004729;28;20205;-76
2021/05/26 05:31:43;;;;;;;9.63;4.10;;;11.30;94.70;;;;;;5018541;28;20178;-78
2021/05/26 05:34:09;;;;;;;8.63;3.60;;;11.40;94.20;;;;;;5018251;28;20646;-80
2021/05/26 05:36:35;;;;;;;13.27;4.20;;;11.20;94.60;;;;;;5016170;28;20183;-77
2021/05/26 05:39:01;;;;;;;5.97;3.80;;;11.20;95.10;;;;;;5016291;28;20241;-78
2021/05/26 05:41:35;;;;;;;5.90;3.53;;;11.20;95.00;;;;;;5015197;28;20260;-76
2021/05/26 05:44:02;;;;;;;10.83;4.33;;;11.20;95.20;;;;;;5015014;28;20182;-77
2021/05/26 05:46:28;;;;;;;10.23;3.80;;;11.30;94.20;;;;;;5015203;28;20202;-81
2021/05/26 05:48:55;;;;;;;7.23;3.70;;;11.30;92.80;;;;;;5016884;28;20202;-78
2021/05/26 05:51:20;;;;;;;4.17;3.00;;;11.20;93.30;;;;;;5016836;28;20178;-80
2021/05/26 05:53:46;;;;;;;7.90;3.47;;;11.40;93.20;;;;;;5017328;28;20186;-77
2021/05/26 05:56:12;;;;;;;7.30;4.20;;;11.40;92.20;;;;;;5019814;28;20553;-77
2021/05/26 05:58:38;;;;;;;7.00;3.70;;;11.50;90.30;;;;;;5022890;28;20178;-78
2021/05/26 06:01:07;;;;;;;8.27;4.17;;;11.50;88.40;;;;;;5025705;28;20216;-78
2021/05/26 06:03:33;;;;;;;6.73;3.80;;;11.30;92.90;;;;;;5023965;28;20170;-83
2021/05/26 06:06:00;;;;;;;7.33;4.47;;;11.30;92.40;;;;;;5024625;28;20289;-78
2021/05/26 06:08:29;;;;;;;8.07;4.43;;;11.30;92.30;;;;;;5023425;28;20170;-83
2021/05/26 06:10:55;;;;;;;7.27;3.80;;;11.40;92.40;;;;;;5023627;28;20202;-82
2021/05/26 06:13:22;;;;;;;7.63;4.23;;;11.50;92.70;;;;;;5027364;28;20190;-83
2021/05/26 06:15:54;;;;;;;7.40;3.97;;;11.50;92.80;;;;;;5024836;28;20535;-81
2021/05/26 06:18:20;;;;;;;5.33;3.90;;;11.70;90.80;;;;;;5013071;28;20661;-80
2021/05/26 06:20:53;;;;;;;8.83;4.20;;;11.60;87.20;;;;;;5009079;28;20214;-81
2021/05/26 06:23:19;;;;;;;8.20;3.60;;;11.50;88.10;;;;;;5000228;28;20163;-80
2021/05/26 06:25:44;;;;;;;6.13;3.93;;;11.60;89.60;;;;;;5016550;28;20257;-79
2021/05/26 06:28:10;;;;;;;9.57;4.13;;;11.60;90.00;;;;;;5008974;28;20218;-80
2021/05/26 06:30:35;;;;;;;7.30;3.57;;;11.60;86.70;;;;;;4997394;28;20175;-81
2021/05/26 06:33:01;;;;;;;8.20;4.10;;;11.60;85.80;;;;;;5013642;28;20167;-79
2021/05/26 06:35:28;;;;;;;5.30;3.10;;;11.60;86.20;;;;;;5004080;28;20202;-82
2021/05/26 06:37:53;;;;;;;6.57;3.40;;;11.60;87.20;;;;;;5014961;28;20257;-82
2021/05/26 06:40:19;;;;;;;8.30;3.50;;;11.60;84.40;;;;;;5015261;28;20730;-78
2021/05/26 06:42:46;;;;;;;11.13;3.83;;;11.60;86.90;;;;;;5015753;28;20198;-82
2021/05/26 06:45:13;;;;;;;5.67;3.23;;;12.00;87.10;;;;;;5017558;28;20607;-83
2021/05/26 06:47:38;;;;;;;5.30;3.30;;;11.90;82.10;;;;;;5017419;28;20325;-80
2021/05/26 06:50:05;;;;;;;5.80;3.30;;;11.90;78.00;;;;;;5015291;28;20174;-75
2021/05/26 06:52:32;;;;;;;10.30;4.03;;;11.90;75.40;;;;;;5017469;28;20665;-75
2021/05/26 06:54:57;;;;;;;6.13;3.13;;;11.90;75.70;;;;;;5000306;28;20167;-75
2021/05/26 06:57:23;;;;;;;4.40;2.83;;;12.00;74.90;;;;;;4996352;28;20179;-75
2021/05/26 06:59:49;;;;;;;6.40;3.70;;;12.10;69.90;;;;;;4995169;28;20221;-79
2021/05/26 07:02:15;;;;;;;5.73;2.93;;;12.00;73.80;;;;;;4995300;28;20207;-75
2021/05/26 07:04:40;;;;;;;6.13;3.23;;;12.00;74.70;;;;;;4998519;28;20178;-75
2021/05/26 07:07:06;;;;;;;6.83;3.17;;;12.00;75.40;;;;;;5014339;28;20194;-75
2021/05/26 07:09:31;;;;;;;5.17;2.57;;;12.10;66.10;;;;;;5013880;28;20171;-75
2021/05/26 07:11:57;;;;;;;5.27;2.40;;;12.20;56.60;;;;;;5012863;28;20197;-76
2021/05/26 07:14:23;;;;;;;5.43;2.90;;;12.20;58.00;;;;;;5015445;28;20173;-76
2021/05/26 07:16:48;;;;;;;5.13;2.70;;;12.00;59.20;;;;;;5014090;28;20198;-75
2021/05/26 07:19:14;;;;;;;4.20;2.63;;;12.20;63.90;;;;;;5014821;28;20173;-75
2021/05/26 07:21:40;;;;;;;4.67;2.63;;;12.30;56.50;;;;;;5013892;28;20237;-77
2021/05/26 07:24:07;;;;;;;5.67;2.83;;;12.20;55.10;;;;;;5012735;28;20171;-76
2021/05/26 07:26:32;;;;;;;5.43;2.70;;;12.30;57.40;;;;;;5014449;28;20189;-77
2021/05/26 07:28:58;;;;;;;6.10;2.87;;;12.50;47.70;;;;;;4998240;28;20603;-76
2021/05/26 07:31:23;;;;;;;3.73;1.93;;;12.40;50.00;;;;;;4993473;28;20172;-74
2021/05/26 07:33:49;;;;;;;3.93;2.17;;;12.30;42.80;;;;;;4997768;28;20167;-76
2021/05/26 07:36:15;;;;;;;3.27;2.10;;;12.30;45.20;;;;;;5000627;28;20576;-79
2021/05/26 07:38:41;;;;;;;4.77;2.53;;;12.30;52.00;;;;;;5004129;28;20182;-74
2021/05/26 07:41:07;;;;;;;4.87;2.37;;;12.30;36.90;;;;;;4999856;28;20218;-75
2021/05/26 07:43:33;;;;;;;6.90;2.70;;;12.10;38.00;;;;;;4996907;28;20206;-75
2021/05/26 07:46:05;;;;;;;7.47;2.93;;;12.20;45.20;;;;;;4995210;28;20253;-75
2021/05/26 07:48:34;;;;;;;4.40;2.70;;;12.30;45.30;;;;;;4994788;28;20179;-75
2021/05/26 07:51:01;;;;;;;5.00;3.20;;;12.30;40.70;;;;;;4994364;28;20171;-74
2021/05/26 07:53:27;;;;;;;5.20;3.20;;;12.20;44.30;;;;;;4995290;28;20173;-75
2021/05/26 07:55:53;;;;;;;4.73;3.20;;;12.20;50.60;;;;;;4999261;28;20266;-75
2021/05/26 07:58:18;;;;;;;6.70;3.30;;;12.20;48.00;;;;;;5003753;28;20659;-75
2021/05/26 08:00:44;;;;;;;7.57;3.33;;;12.20;51.30;;;;;;4995128;28;20265;-74
2021/05/26 08:03:09;;;;;;;5.30;3.40;;;12.40;42.30;;;;;;5006926;28;20202;-75
2021/05/26 08:05:35;;;;;;;8.23;3.57;;;12.50;40.70;;;;;;5005511;28;20189;-76
2021/05/26 08:08:01;;;;;;;5.03;3.00;;;12.70;42.00;;;;;;5006103;28;20163;-76
2021/05/26 08:10:26;;;;;;;6.53;3.27;;;12.70;33.00;;;;;;5015099;28;20198;-77
2021/05/26 08:12:52;;;;;;;6.57;4.20;;;12.80;24.00;;;;;;5014949;28;20567;-73
2021/05/26 08:15:18;;;;;;;4.87;3.13;;;12.80;22.90;;;;;;5008435;28;20619;-76
2021/05/26 08:17:44;;;;;;;8.27;3.63;;;13.00;21.20;;;;;;5012041;28;20173;-74
2021/05/26 08:20:11;;;;;;;4.77;3.20;;;13.10;17.60;;;;;;5032548;28;20188;-77
2021/05/26 08:22:37;;;;;;;5.40;3.23;;;13.20;5.50;;;;;;5037469;28;20185;-74
2021/05/26 08:25:03;;;;;;;7.90;3.57;;;13.20;1.00;;;;;;5039481;28;20528;-77
2021/05/26 08:27:29;;;;;;;5.53;3.30;;;13.20;1.00;;;;;;5038548;28;20230;-75
2021/05/26 08:29:56;;;;;;;5.20;3.33;;;13.30;1.00;;;;;;5016301;28;20233;-75
2021/05/26 08:32:22;;;;;;;6.60;2.63;;;13.60;1.00;;;;;;5017294;28;20170;-75
2021/05/26 08:34:49;;;;;;;5.63;2.60;;;13.60;1.00;;;;;;5018623;28;20202;-75
2021/05/26 08:37:16;;;;;;;5.50;2.80;;;13.70;1.00;;;;;;5015017;28;20700;-76
2021/05/26 08:39:42;;;;;;;6.73;3.40;;;13.70;1.00;;;;;;4996378;28;20255;-78
2021/05/26 08:42:08;;;;;;;5.70;3.33;;;13.80;1.00;;;;;;4996046;28;20206;-74
2021/05/26 08:44:34;;;;;;;6.40;3.07;;;13.70;1.00;;;;;;5005389;28;20166;-74
2021/05/26 08:47:02;;;;;;;5.67;3.47;;;13.80;1.00;;;;;;5034414;28;20184;-73
2021/05/26 08:49:30;;;;;;;4.20;3.07;;;13.70;1.00;;;;;;5036921;28;20271;-78
2021/05/26 08:52:01;;;;;;;4.53;3.40;;;13.70;1.00;;;;;;5036120;28;20181;-75
2021/05/26 08:54:27;;;;;;;6.90;3.60;;;13.60;1.00;;;;;;5036224;28;20165;-75
2021/05/26 08:56:53;;;;;;;7.30;3.90;;;13.40;1.00;;;;;;5035273;28;20170;-78
2021/05/26 08:59:20;;;;;;;7.30;3.63;;;13.30;1.00;;;;;;5035012;28;20598;-75
2021/05/26 09:01:49;;;;;;;6.00;4.00;;;13.30;1.00;;;;;;5038229;28;20671;-74
2021/05/26 09:04:35;;;;;;;7.93;4.33;;;13.20;2.80;;;;;;5036742;28;20185;-74
2021/05/26 09:07:22;;;;;;;5.97;3.80;;;13.20;9.70;;;;;;5036965;28;20525;-75
2021/05/26 09:09:55;;;;;;;5.73;3.97;;;13.10;1.00;;;;;;5036700;28;20648;-77
2021/05/26 09:12:32;;;;;;;6.53;3.90;;;13.20;1.00;;;;;;5037370;28;20247;-77
2021/05/26 09:15:18;;;;;;;5.57;3.83;;;13.30;1.00;;;;;;5037802;28;20232;-78
2021/05/26 09:17:57;;;;;;;6.10;3.90;;;13.50;1.00;;;;;;5039122;28;20622;-82
2021/05/26 09:20:28;;;;;;;7.80;4.23;;;13.60;1.00;;;;;;5020460;28;20194;-80
2021/05/26 09:23:01;;;;;;;6.43;3.87;;;13.50;1.00;;;;;;5018509;28;20197;-79
2021/05/26 09:25:29;;;;;;;6.90;4.70;;;13.50;1.00;;;;;;5024556;28;20166;-78
2021/05/26 09:28:14;;;;;;;9.60;4.10;;;13.60;1.00;;;;;;5017111;28;20197;-79
2021/05/26 09:30:41;;;;;;;9.17;4.10;;;13.90;1.00;;;;;;5020280;28;20657;-80
2021/05/26 09:33:26;;;;;;;5.77;4.03;;;13.90;1.00;;;;;;5019716;28;20170;-78
2021/05/26 09:36:14;;;;;;;6.33;4.13;;;14.00;1.00;;;;;;5018647;28;20186;-79
2021/05/26 09:38:42;;;;;;;6.03;4.27;;;14.10;1.00;;;;;;5019909;28;20229;-78
2021/05/26 09:41:16;;;;;;;6.13;3.97;;;14.10;1.00;;;;;;5018883;28;20237;-80
2021/05/26 09:43:46;;;;;;;6.63;4.60;;;14.10;1.00;;;;;;5017543;28;20665;-79
2021/05/26 09:46:27;;;;;;;11.10;6.23;;;14.10;1.00;;;;;;5016609;28;20582;-78
2021/05/26 09:49:23;;;;;;;7.20;5.17;;;14.10;1.00;;;;;;5016649;28;20257;-80
2021/05/26 09:51:55;;;;;;;7.37;4.93;;;14.20;1.00;;;;;;5015764;28;20547;-80
2021/05/26 09:54:23;;;;;;;7.20;5.50;;;14.10;1.00;;;;;;5020704;28;20174;-78
2021/05/26 09:57:03;;;;;;;6.63;5.73;;;13.70;1.00;;;;;;5021540;28;20182;-78
2021/05/26 09:59:31;;;;;;;9.57;6.83;;;13.60;1.00;;;;;;5020125;28;20212;-78
2021/05/26 10:01:58;;;;;;;7.93;6.47;;;13.50;1.00;;;;;;5022150;28;20391;-78
2021/05/26 10:04:25;;;;;;;8.03;6.23;;;13.70;1.00;;;;;;5022316;28;20167;-75
2021/05/26 10:06:53;;;;;;;8.53;6.37;;;13.80;1.00;;;;;;5029810;28;20176;-76
2021/05/26 10:09:24;;;;;;;8.00;6.23;;;14.20;1.00;;;;;;5028459;28;20244;-82
2021/05/26 10:11:55;;;;;;;7.03;5.80;;;14.40;1.00;;;;;;5016610;28;20158;-76
2021/05/26 10:14:23;;;;;;;8.77;6.03;;;14.60;1.00;;;;;;5015061;28;20193;-78
2021/05/26 10:16:51;;;;;;;8.80;5.50;;;14.90;1.00;;;;;;5015560;28;20249;-80
2021/05/26 10:19:17;;;;;;;6.83;6.13;;;14.70;1.00;;;;;;5015669;28;20174;-78
2021/05/26 10:21:46;;;;;;;8.37;6.30;;;14.90;1.00;;;;;;5024906;28;20213;-76
2021/05/26 10:24:19;;;;;;;8.83;6.23;;;14.90;1.00;;;;;;5035863;28;20197;-76
2021/05/26 10:26:47;;;;;;;8.43;6.27;;;14.90;1.00;;;;;;5044371;28;20233;-78
2021/05/26 10:29:33;;;;;;;6.90;4.33;;;15.10;1.00;;;;;;5029049;28;20183;-79
2021/05/26 10:32:14;;;;;;;6.73;4.70;;;14.90;1.00;;;;;;5010115;28;20162;-78
2021/05/26 10:34:42;;;;;;;6.43;4.30;;;15.10;1.00;;;;;;5005862;28;20179;-77
2021/05/26 10:37:13;;;;;;;6.60;4.30;;;15.10;1.00;;;;;;5005322;28;20167;-77
2021/05/26 10:39:39;;;;;;;6.27;4.30;;;15.20;1.00;;;;;;5004490;28;20180;-78
2021/05/26 10:42:23;;;;;;;7.77;4.00;;;15.40;1.00;;;;;;5008023;28;20210;-78
2021/05/26 10:44:56;;;;;;;7.90;4.80;;;15.60;99.90;;;;;;4994748;28;20185;-77
2021/05/26 10:47:39;;;;;;;8.03;4.70;;;15.30;1.00;;;;;;4994695;28;20245;-77
2021/05/26 10:50:06;;;;;;;8.50;4.47;;;15.20;1.00;;;;;;4995727;28;20172;-81
2021/05/26 10:53:01;;;;;;;7.13;5.00;;;15.00;1.00;;;;;;5005847;28;20683;-76
2021/05/26 10:55:46;;;;;;;5.93;5.20;;;15.00;1.00;;;;;;5004486;28;20167;-76
2021/05/26 10:58:21;;;;;;;7.83;5.03;;;15.00;1.00;;;;;;5009938;28;20189;-75
2021/05/26 11:00:49;;;;;;;8.53;5.37;;;15.30;1.00;;;;;;5008394;28;20278;-76
2021/05/26 11:03:27;;;;;;;8.47;4.90;;;15.30;1.00;;;;;;5013675;28;20170;-77
2021/05/26 11:05:54;;;;;;;6.87;3.17;;;15.20;1.00;;;;;;5019746;28;20634;-78
2021/05/26 11:08:31;;;;;;;10.70;4.70;;;15.00;99.90;;;;;;5034354;28;20208;-76
2021/05/26 11:10:57;;;;;;;8.70;4.50;;;14.90;1.00;;;;;;5020417;28;20634;-78
2021/05/26 11:13:23;;;;;;;11.97;5.27;;;14.50;1.00;;;;;;5007225;28;20179;-77
2021/05/26 11:15:56;;;;;;;10.13;6.10;;;14.10;1.00;;;;;;5021819;28;20190;-78
2021/05/26 11:20:48;;;;;;;7.63;5.63;;;13.90;1.00;;;;;;5031668;28;20296;-80
2021/05/26 11:23:15;;;;;;;6.83;5.50;;;14.00;1.00;;;;;;5013785;28;20194;-79
2021/05/26 11:25:56;;;;;;;6.50;5.07;;;14.00;1.00;;;;;;5012363;28;20189;-80
2021/05/26 11:28:33;;;;;;;9.77;6.03;;;14.10;1.00;;;;;;5003592;28;20273;-78
2021/05/26 11:31:06;;;;;;;9.43;6.63;;;14.10;1.00;;;;;;5012761;28;20189;-78
2021/05/26 11:33:32;;;;;;;9.37;6.43;;;14.20;1.00;;;;;;5011767;28;20175;-79
2021/05/26 11:36:05;;;;;;;7.27;6.50;;;14.50;1.00;;;;;;5002966;28;20292;-79
2021/05/26 11:38:32;;;;;;;8.73;6.90;;;14.50;1.00;;;;;;5011606;28;20181;-79
2021/05/26 11:41:00;;;;;;;7.30;6.60;;;14.80;1.00;;;;;;5014641;28;20213;-79
2021/05/26 11:43:30;;;;;;;6.60;4.90;;;14.90;1.00;;;;;;5029438;28;20265;-79
2021/05/26 11:46:10;;;;;;;4.63;4.00;;;15.00;1.00;;;;;;5023265;28;20224;-80
2021/05/26 11:48:36;;;;;;;5.20;2.50;;;14.90;1.00;;;;;;5016540;28;20179;-79
2021/05/26 11:51:02;;;;;;;6.97;3.23;;;14.70;1.00;;;;;;5018194;28;20172;-79
2021/05/26 11:53:28;;;;;;;5.63;2.87;;;14.60;1.00;;;;;;5018890;28;20174;-77
2021/05/26 11:56:02;;;;;;;5.83;3.57;;;14.50;1.00;;;;;;5009556;28;20173;-77
2021/05/26 11:58:37;;;;;;;3.73;2.40;;;14.80;1.00;;;;;;5017758;28;20653;-78
2021/05/26 12:01:05;;;;;;;4.00;2.13;;;14.90;99.90;;;;;;4998641;28;20196;-78
2021/05/26 12:03:31;;;;;;;7.63;3.00;;;14.80;1.00;;;;;;4998783;28;20180;-79
2021/05/26 12:05:58;;;;;;;4.60;2.93;;;14.80;1.00;;;;;;5013848;28;20597;-78
2021/05/26 12:08:25;;;;;;;5.97;2.93;;;14.70;1.00;;;;;;5037877;28;20180;-79
2021/05/26 12:10:55;;;;;;;4.83;3.77;;;14.50;1.00;;;;;;5026502;28;20678;-77
2021/05/26 12:13:25;;;;;;;5.90;3.10;;;14.40;1.00;;;;;;5018319;28;20209;-76
2021/05/26 12:15:52;;;;;;;5.67;2.50;;;14.50;1.00;;;;;;5018208;28;20174;-79
2021/05/26 12:18:19;;;;;;;3.60;2.33;;;14.10;1.00;;;;;;5018226;28;20167;-79
2021/05/26 12:20:51;;;;;;;4.00;1.70;;;13.90;1.00;;;;;;5018522;28;20506;-79
2021/05/26 12:23:34;;;;;;;4.73;2.47;;;14.00;1.00;;;;;;5018087;28;20162;-78
2021/05/26 12:26:00;;;;;;;5.20;2.73;;;14.10;1.00;;;;;;5018756;28;20171;-78
2021/05/26 12:28:29;;;;;;;7.20;3.77;;;14.10;1.00;;;;;;5019001;28;20166;-79
2021/05/26 12:30:56;;;;;;;5.23;2.93;;;14.10;1.00;;;;;;5020179;28;20235;-77
2021/05/26 12:33:26;;;;;;;18.37;10.00;;;14.10;1.00;;;;;;5021752;28;20220;-78
2021/05/26 12:36:07;;;;;;;6.33;4.40;;;14.10;1.00;;;;;;5013487;28;20229;-78
2021/05/26 12:38:40;;;;;;;6.13;3.80;;;14.20;1.00;;;;;;5018617;28;20170;-78
2021/05/26 12:41:34;;;;;;;10.37;3.50;;;14.40;1.00;;;;;;5020209;28;20256;-77
2021/05/26 12:44:09;;;;;;;4.70;2.93;;;14.60;1.00;;;;;;5011457;28;20681;-77
2021/05/26 12:46:55;;;;;;;5.50;2.50;;;14.80;1.00;;;;;;5027419;28;20185;-76
2021/05/26 12:49:35;;;;;;;10.13;6.53;;;14.90;1.00;;;;;;5029090;28;20231;-79
2021/05/26 12:52:23;;;;;;;12.17;9.73;;;15.00;1.00;;;;;;5018092;28;20174;-78
2021/05/26 12:54:49;;;;;;;7.93;4.20;;;15.10;1.00;;;;;;5015566;28;20592;-79
2021/05/26 12:57:24;;;;;;;2.67;1.70;;;15.30;1.00;;;;;;5015334;28;20167;-76
2021/05/26 12:59:59;;;;;;;2.43;1.50;;;15.40;99.90;;;;;;5015275;28;20209;-76